Time;durP1;ratioP1;P1;durP2;ratioP2;P2;SDS_P1;SDS_P2;PMS_P1;PMS_P2;Temp;Humidity;BMP_temperature;BMP_pressure;BME280_temperature;BME280_humidity;BME280_pressure;Samples;Min_cycle;Max_cycle;Signal;HPM_P1;HPM_P2
2021/10/22 00:02:57;;;;;;;20.35;4.57;;;18.90;71.80;;;;;;5004856;28;20404;-72
2021/10/22 00:06:03;;;;;;;17.52;5.20;;;18.90;71.70;;;;;;5025569;28;20022;-71
2021/10/22 00:09:09;;;;;;;16.85;4.15;;;18.90;71.80;;;;;;5025891;28;20364;-72
2021/10/22 00:12:15;;;;;;;17.58;5.30;;;18.90;71.90;;;;;;5024484;28;20029;-72
2021/10/22 00:15:21;;;;;;;21.05;4.80;;;18.80;72.10;;;;;;5023880;28;20108;-72
2021/10/22 00:18:27;;;;;;;24.52;5.30;;;18.80;72.20;;;;;;5022757;28;20030;-72
2021/10/22 00:21:33;;;;;;;16.85;5.70;;;18.90;72.40;;;;;;5023001;28;20033;-71
2021/10/22 00:24:39;;;;;;;18.33;4.30;;;18.90;72.70;;;;;;5021961;28;20076;-71
2021/10/22 00:27:45;;;;;;;15.35;4.40;;;18.90;73.00;;;;;;5024111;28;20029;-72
2021/10/22 00:30:51;;;;;;;21.40;5.88;;;18.90;73.20;;;;;;5025080;28;20100;-72
2021/10/22 00:33:58;;;;;;;24.52;4.57;;;18.90;73.10;;;;;;5021283;28;20070;-72
2021/10/22 00:37:04;;;;;;;15.18;4.68;;;18.90;73.60;;;;;;5021791;28;20021;-71
2021/10/22 00:40:11;;;;;;;19.90;5.00;;;18.80;73.60;;;;;;5022783;28;20433;-71
2021/10/22 00:43:18;;;;;;;14.00;5.22;;;18.80;74.10;;;;;;5024292;28;20021;-71
2021/10/22 00:46:27;;;;;;;20.40;6.03;;;18.80;74.30;;;;;;5020191;28;20028;-71
2021/10/22 00:49:33;;;;;;;21.70;6.05;;;18.80;74.40;;;;;;5024263;28;20236;-72
2021/10/22 00:52:39;;;;;;;17.27;5.85;;;18.70;74.50;;;;;;5022927;28;20056;-72
2021/10/22 00:55:46;;;;;;;19.08;5.85;;;18.70;74.90;;;;;;5026094;28;20030;-72
2021/10/22 00:58:52;;;;;;;16.85;5.05;;;18.70;75.10;;;;;;5021099;28;20032;-71
2021/10/22 01:01:58;;;;;;;18.42;5.07;;;18.70;75.20;;;;;;5022847;28;20448;-71
2021/10/22 01:05:09;;;;;;;24.58;5.97;;;18.70;75.20;;;;;;5021927;28;20032;-72
2021/10/22 01:08:16;;;;;;;24.63;4.78;;;18.70;75.10;;;;;;5018312;28;20447;-71
2021/10/22 01:11:22;;;;;;;23.65;6.38;;;18.70;75.50;;;;;;5020766;28;20967;-73
2021/10/22 01:14:28;;;;;;;21.42;4.47;;;18.70;75.70;;;;;;5025930;28;20152;-71
2021/10/22 01:17:32;;;;;;;21.83;5.07;;;18.80;75.50;;;;;;5023338;28;20091;-71
2021/10/22 01:20:38;;;;;;;21.63;5.05;;;18.80;75.40;;;;;;5021900;28;20026;-71
2021/10/22 01:23:44;;;;;;;22.38;5.97;;;18.80;75.40;;;;;;5023284;28;20034;-72
2021/10/22 01:26:50;;;;;;;16.35;3.78;;;18.70;75.20;;;;;;5024925;28;20033;-71
2021/10/22 01:29:56;;;;;;;22.42;4.57;;;18.80;75.40;;;;;;5021020;28;20049;-71
2021/10/22 01:33:03;;;;;;;14.85;5.05;;;18.80;75.50;;;;;;5022559;28;20021;-72
2021/10/22 01:36:09;;;;;;;12.55;3.85;;;18.70;75.40;;;;;;5023685;28;20029;-72
2021/10/22 01:39:15;;;;;;;25.27;5.53;;;18.70;75.50;;;;;;5024912;28;20032;-72
2021/10/22 01:42:22;;;;;;;20.92;6.53;;;18.70;75.40;;;;;;5023968;28;20076;-72
2021/10/22 01:45:28;;;;;;;13.60;3.38;;;18.70;75.40;;;;;;5023824;28;20017;-71
2021/10/22 01:48:34;;;;;;;18.90;5.68;;;18.70;75.70;;;;;;5024506;28;20094;-71
2021/10/22 01:51:40;;;;;;;20.50;6.63;;;18.70;75.70;;;;;;5026131;28;20075;-72
2021/10/22 01:54:46;;;;;;;21.77;5.70;;;18.70;75.50;;;;;;5025044;28;20026;-72
2021/10/22 01:57:32;;;;;;;;;;;18.70;75.70;;;;;;5026301;28;20033;-72
2021/10/22 02:00:38;;;;;;;22.80;6.53;;;18.70;75.60;;;;;;5023975;28;19978;-72
2021/10/22 02:03:44;;;;;;;17.08;5.07;;;18.70;75.70;;;;;;5021040;28;20030;-72
2021/10/22 02:06:50;;;;;;;23.75;6.53;;;18.70;75.50;;;;;;5024893;28;20631;-72
2021/10/22 02:09:56;;;;;;;29.73;8.23;;;18.70;75.50;;;;;;5021901;28;20481;-72
2021/10/22 02:13:02;;;;;;;78.90;42.78;;;18.70;75.50;;;;;;5021412;28;20018;-73
2021/10/22 02:16:09;;;;;;;24.75;9.85;;;18.70;75.70;;;;;;5019035;28;20100;-72
2021/10/22 02:18:55;;;;;;;;;;;18.70;75.60;;;;;;5021501;28;20035;-72
2021/10/22 02:22:01;;;;;;;24.65;6.40;;;18.70;75.80;;;;;;5023624;28;19913;-72
2021/10/22 02:25:07;;;;;;;20.77;6.97;;;18.60;75.70;;;;;;5021802;28;20064;-73
2021/10/22 02:28:13;;;;;;;23.30;5.38;;;18.60;76.00;;;;;;5028121;28;20025;-72
2021/10/22 02:31:20;;;;;;;22.17;7.60;;;18.50;76.20;;;;;;5026229;28;20100;-72
2021/10/22 02:34:26;;;;;;;24.65;6.90;;;18.50;76.40;;;;;;5026405;28;20034;-72
2021/10/22 02:37:32;;;;;;;18.60;5.00;;;18.50;76.70;;;;;;5023453;28;20388;-71
2021/10/22 02:40:38;;;;;;;16.30;5.22;;;18.40;76.70;;;;;;5028218;28;20079;-72
2021/10/22 02:43:44;;;;;;;24.20;5.65;;;18.50;76.80;;;;;;5026686;28;20037;-72
2021/10/22 02:46:51;;;;;;;20.02;5.10;;;18.50;76.90;;;;;;5027974;28;20477;-72
2021/10/22 02:49:57;;;;;;;16.05;5.22;;;18.50;76.80;;;;;;5028223;28;20025;-73
2021/10/22 02:53:03;;;;;;;23.73;5.68;;;18.50;76.80;;;;;;5027086;28;20022;-71
2021/10/22 02:56:09;;;;;;;22.88;6.03;;;18.50;76.60;;;;;;5026796;28;20049;-71
2021/10/22 02:59:15;;;;;;;27.65;6.10;;;18.40;76.70;;;;;;5024324;28;20171;-72
2021/10/22 03:02:21;;;;;;;53.42;38.47;;;18.40;76.70;;;;;;5027595;28;20033;-71
2021/10/22 03:05:29;;;;;;;48.55;24.73;;;18.40;76.50;;;;;;5024287;28;20068;-71
2021/10/22 03:08:35;;;;;;;25.48;7.28;;;18.40;76.70;;;;;;5021645;28;20033;-72
2021/10/22 03:11:41;;;;;;;26.02;6.60;;;18.40;76.50;;;;;;5025175;28;20096;-72
2021/10/22 03:14:47;;;;;;;22.77;5.57;;;18.40;76.50;;;;;;5028440;28;20014;-71
2021/10/22 03:17:57;;;;;;;21.50;5.35;;;18.40;76.30;;;;;;5024176;28;20147;-71
2021/10/22 03:21:03;;;;;;;18.52;4.07;;;18.30;76.40;;;;;;5027596;28;20052;-71
2021/10/22 03:24:09;;;;;;;17.92;5.53;;;18.30;76.80;;;;;;5025234;28;20386;-71
2021/10/22 03:26:55;;;;;;;;;;;18.20;76.70;;;;;;5024749;28;20025;-72
2021/10/22 03:30:01;;;;;;;16.70;6.22;;;18.20;76.90;;;;;;5026045;28;19909;-71
2021/10/22 03:33:07;;;;;;;40.92;23.55;;;18.20;77.10;;;;;;5027204;28;20029;-72
2021/10/22 03:36:13;;;;;;;24.92;9.52;;;18.20;77.10;;;;;;5023913;28;20045;-70
2021/10/22 03:39:19;;;;;;;13.65;5.18;;;18.30;76.90;;;;;;5025493;28;20083;-71
2021/10/22 03:42:25;;;;;;;17.13;5.25;;;18.20;76.60;;;;;;5023611;28;20043;-72
2021/10/22 03:45:31;;;;;;;14.15;4.50;;;18.20;76.80;;;;;;5027673;28;20025;-73
2021/10/22 03:48:38;;;;;;;23.02;4.85;;;18.20;76.60;;;;;;5025006;28;20029;-71
2021/10/22 03:51:44;;;;;;;23.27;5.72;;;18.20;76.50;;;;;;5024385;28;20109;-71
2021/10/22 03:54:51;;;;;;;21.98;5.68;;;18.20;76.70;;;;;;5029841;28;20021;-72
2021/10/22 03:57:57;;;;;;;16.85;4.47;;;18.20;76.30;;;;;;5026016;28;20022;-74
2021/10/22 04:01:03;;;;;;;16.42;3.63;;;18.20;76.20;;;;;;5023655;28;20034;-74
2021/10/22 04:04:09;;;;;;;20.80;4.93;;;18.10;76.50;;;;;;5025513;28;20017;-79
2021/10/22 04:07:15;;;;;;;20.35;7.13;;;18.20;76.60;;;;;;5022408;28;20536;-72
2021/10/22 04:10:21;;;;;;;42.13;24.58;;;18.10;76.90;;;;;;5019808;28;20452;-73
2021/10/22 04:13:27;;;;;;;24.75;6.80;;;18.10;77.10;;;;;;5023034;28;20038;-72
2021/10/22 04:16:33;;;;;;;13.55;4.15;;;18.10;77.10;;;;;;5025848;28;20067;-71
2021/10/22 04:19:43;;;;;;;24.58;5.15;;;18.10;77.20;;;;;;5026804;28;20480;-71
2021/10/22 04:22:49;;;;;;;21.75;6.05;;;18.10;77.40;;;;;;5025222;28;20067;-78
2021/10/22 04:25:55;;;;;;;31.75;13.98;;;18.10;77.80;;;;;;5017990;28;20140;-72
2021/10/22 04:29:01;;;;;;;61.63;37.95;;;18.10;78.10;;;;;;5021787;28;20477;-69
2021/10/22 04:32:07;;;;;;;21.58;7.03;;;18.10;78.20;;;;;;5023090;28;20481;-74
2021/10/22 04:35:14;;;;;;;22.17;7.35;;;18.20;78.30;;;;;;5024679;28;20038;-69
2021/10/22 04:41:29;;;;;;;15.57;5.43;;;18.20;78.30;;;;;;5025769;28;20046;-69
2021/10/22 04:44:35;;;;;;;22.27;4.82;;;18.20;78.50;;;;;;5023597;28;20022;-73
2021/10/22 04:47:41;;;;;;;23.38;6.65;;;18.20;78.50;;;;;;5025011;28;20529;-73
2021/10/22 04:50:49;;;;;;;18.30;6.28;;;18.20;78.30;;;;;;5024679;28;20460;-73
2021/10/22 04:53:55;;;;;;;22.60;5.90;;;18.30;78.20;;;;;;5024439;28;20029;-74
2021/10/22 04:57:01;;;;;;;23.73;6.07;;;18.30;78.00;;;;;;5023511;28;20061;-70
2021/10/22 05:00:07;;;;;;;13.48;5.00;;;18.30;78.00;;;;;;5023179;28;20025;-69
2021/10/22 05:03:14;;;;;;;16.65;5.07;;;18.30;78.10;;;;;;5024426;28;20078;-70
2021/10/22 05:06:20;;;;;;;21.55;5.70;;;18.30;78.40;;;;;;5023673;28;20389;-71
2021/10/22 05:09:26;;;;;;;19.33;5.28;;;18.40;78.40;;;;;;5022248;28;20052;-71
2021/10/22 05:12:32;;;;;;;26.95;5.25;;;18.40;78.20;;;;;;5015802;28;20100;-70
2021/10/22 05:15:38;;;;;;;22.42;5.45;;;18.40;78.00;;;;;;5014800;28;20072;-71
2021/10/22 05:18:44;;;;;;;17.90;4.45;;;18.50;77.80;;;;;;5014673;28;20028;-71
2021/10/22 05:21:50;;;;;;;27.33;5.07;;;18.50;77.60;;;;;;5019479;28;20069;-71
2021/10/22 05:24:57;;;;;;;18.20;3.90;;;18.50;77.50;;;;;;5019947;28;20380;-71
2021/10/22 05:28:03;;;;;;;26.65;6.35;;;18.60;77.50;;;;;;5020092;28;20129;-71
2021/10/22 05:31:09;;;;;;;19.13;6.47;;;18.60;76.90;;;;;;5017686;28;20523;-71
2021/10/22 05:34:16;;;;;;;24.42;5.60;;;18.60;76.50;;;;;;5016718;28;20049;-71
2021/10/22 05:37:22;;;;;;;21.77;5.03;;;18.70;76.80;;;;;;5015072;28;20026;-71
2021/10/22 05:40:28;;;;;;;21.83;4.38;;;18.70;76.60;;;;;;5017166;28;20061;-71
2021/10/22 05:43:34;;;;;;;25.10;5.22;;;18.70;76.70;;;;;;5022825;28;20510;-71
2021/10/22 05:46:40;;;;;;;22.80;6.85;;;18.70;76.40;;;;;;5024262;28;20045;-71
2021/10/22 05:49:46;;;;;;;20.83;8.00;;;18.70;76.10;;;;;;5020485;28;20476;-70
2021/10/22 05:52:53;;;;;;;23.45;6.45;;;18.80;75.90;;;;;;5024193;28;20021;-71
2021/10/22 05:55:59;;;;;;;16.60;4.70;;;18.80;75.10;;;;;;5023622;28;20017;-70
2021/10/22 05:59:05;;;;;;;21.60;5.47;;;18.80;75.20;;;;;;5022467;28;20417;-70
2021/10/22 06:02:11;;;;;;;17.50;5.78;;;18.80;74.90;;;;;;5027998;28;20029;-70
2021/10/22 06:05:17;;;;;;;20.05;4.85;;;18.80;75.00;;;;;;5029602;28;20064;-70
2021/10/22 06:08:23;;;;;;;15.45;3.97;;;18.90;74.60;;;;;;5024824;28;20025;-70
2021/10/22 06:11:29;;;;;;;25.83;6.40;;;18.90;74.00;;;;;;5029073;28;20024;-70
2021/10/22 06:14:35;;;;;;;23.52;5.40;;;18.90;73.60;;;;;;5027547;28;20022;-70
2021/10/22 06:17:41;;;;;;;23.92;5.30;;;18.80;73.40;;;;;;5030381;28;20083;-71
2021/10/22 06:23:54;;;;;;;14.30;3.92;;;18.80;74.00;;;;;;5012562;28;20035;-71
2021/10/22 06:27:00;;;;;;;22.90;6.40;;;18.90;74.20;;;;;;5015742;28;20485;-71
2021/10/22 06:29:43;;;;;;;21.58;5.10;;;18.90;74.00;;;;;;5019878;28;20029;-70
2021/10/22 06:32:10;;;;;;;22.33;4.75;;;18.90;73.90;;;;;;5016976;28;20030;-70
2021/10/22 06:34:36;;;;;;;20.35;4.38;;;18.90;73.90;;;;;;5019253;28;20050;-70
2021/10/22 06:37:03;;;;;;;27.17;6.40;;;18.90;73.90;;;;;;5002219;28;20516;-70
2021/10/22 06:39:30;;;;;;;24.40;5.18;;;18.90;73.90;;;;;;5014315;28;20025;-71
2021/10/22 06:41:56;;;;;;;18.77;4.90;;;19.00;73.90;;;;;;5017245;28;20496;-71
2021/10/22 06:44:25;;;;;;;24.05;5.10;;;19.00;73.70;;;;;;5013997;28;20064;-71
2021/10/22 06:46:51;;;;;;;25.30;5.88;;;19.00;73.80;;;;;;5018082;28;20480;-71
2021/10/22 06:49:18;;;;;;;19.27;4.25;;;19.10;73.70;;;;;;5017794;28;20473;-71
2021/10/22 06:51:45;;;;;;;21.85;5.10;;;19.10;73.70;;;;;;5000948;28;20397;-71
2021/10/22 06:54:11;;;;;;;22.27;6.07;;;19.20;73.60;;;;;;5016453;28;20423;-71
2021/10/22 06:56:38;;;;;;;22.58;5.78;;;19.20;73.00;;;;;;5019230;28;20025;-71
2021/10/22 06:59:04;;;;;;;18.00;5.15;;;19.20;72.50;;;;;;5020254;28;20080;-71
2021/10/22 07:01:31;;;;;;;20.17;4.53;;;19.30;73.20;;;;;;5017191;28;20041;-71
2021/10/22 07:03:57;;;;;;;29.55;5.72;;;19.30;72.80;;;;;;5014970;28;20020;-71
2021/10/22 07:09:09;;;;;;;23.58;4.95;;;19.40;72.40;;;;;;5025905;28;20429;-70
2021/10/22 07:11:37;;;;;;;19.42;5.20;;;19.40;71.80;;;;;;5010599;28;20037;-70
2021/10/22 07:14:06;;;;;;;29.13;5.00;;;19.40;71.70;;;;;;5024701;28;20017;-72
2021/10/22 07:16:33;;;;;;;44.90;6.70;;;19.50;71.20;;;;;;5024968;28;20025;-70
2021/10/22 07:18:59;;;;;;;20.52;5.03;;;19.50;71.30;;;;;;5020856;28;20036;-70
2021/10/22 07:21:26;;;;;;;24.23;6.18;;;19.60;71.60;;;;;;5028525;28;20485;-71
2021/10/22 07:23:52;;;;;;;20.98;6.07;;;19.60;71.50;;;;;;5026010;28;20384;-70
2021/10/22 07:26:20;;;;;;;25.38;6.13;;;19.60;71.20;;;;;;5009589;28;20038;-71
2021/10/22 07:28:48;;;;;;;27.88;6.32;;;19.60;70.20;;;;;;5026485;28;20072;-70
2021/10/22 07:31:15;;;;;;;22.42;4.65;;;19.60;70.20;;;;;;5026816;28;20048;-70
2021/10/22 07:33:43;;;;;;;22.83;5.40;;;19.70;70.80;;;;;;5024223;28;20037;-70
2021/10/22 07:36:12;;;;;;;37.42;5.57;;;19.80;71.10;;;;;;5021139;28;20025;-70
2021/10/22 07:38:41;;;;;;;17.08;5.75;;;19.80;70.70;;;;;;5024509;28;20022;-70
2021/10/22 07:41:07;;;;;;;18.77;4.78;;;19.80;70.50;;;;;;5024375;28;20047;-70
2021/10/22 07:43:35;;;;;;;16.95;4.82;;;19.80;70.60;;;;;;5026484;28;20018;-70
2021/10/22 07:46:02;;;;;;;27.48;5.15;;;19.70;70.50;;;;;;5010527;28;20031;-70
2021/10/22 07:48:29;;;;;;;26.75;5.38;;;19.70;69.90;;;;;;5025596;28;20030;-71
2021/10/22 07:50:55;;;;;;;24.77;5.88;;;19.70;69.90;;;;;;5024699;28;20025;-70
2021/10/22 07:53:22;;;;;;;23.65;5.38;;;19.70;69.70;;;;;;5022890;28;20132;-71
2021/10/22 07:55:49;;;;;;;20.95;5.28;;;19.80;69.80;;;;;;5009404;28;20024;-71
2021/10/22 07:58:16;;;;;;;17.30;4.97;;;19.80;69.80;;;;;;5024813;28;20090;-70
2021/10/22 08:00:43;;;;;;;26.45;5.97;;;19.80;69.80;;;;;;5025776;28;20072;-70
2021/10/22 08:03:10;;;;;;;21.85;5.72;;;19.80;70.10;;;;;;5026564;28;20447;-71
2021/10/22 08:05:37;;;;;;;22.52;5.10;;;19.80;70.30;;;;;;5025402;28;20071;-70
2021/10/22 08:08:05;;;;;;;18.50;4.65;;;19.80;70.40;;;;;;5024132;28;20023;-70
2021/10/22 08:10:33;;;;;;;34.22;5.82;;;19.80;71.60;;;;;;5025412;28;20050;-70
2021/10/22 08:13:01;;;;;;;19.33;4.85;;;19.70;72.10;;;;;;5026476;28;20489;-70
2021/10/22 08:15:29;;;;;;;17.02;5.97;;;19.60;72.40;;;;;;5019621;28;20037;-71
2021/10/22 08:17:56;;;;;;;15.68;4.38;;;19.60;72.40;;;;;;5023815;28;20025;-70
2021/10/22 08:20:23;;;;;;;21.88;4.90;;;19.60;71.80;;;;;;5021547;28;20476;-71
2021/10/22 08:22:51;;;;;;;23.35;5.70;;;19.60;71.70;;;;;;5023634;28;20429;-70
2021/10/22 08:25:20;;;;;;;12.07;4.40;;;19.70;71.90;;;;;;5024297;28;20412;-70
2021/10/22 08:27:49;;;;;;;17.75;5.90;;;19.70;72.10;;;;;;5022672;28;20018;-70
2021/10/22 08:30:20;;;;;;;18.73;4.85;;;19.70;72.30;;;;;;5025505;28;20055;-70
2021/10/22 08:32:50;;;;;;;19.20;4.82;;;19.80;72.80;;;;;;5022971;28;20045;-70
2021/10/22 08:35:19;;;;;;;21.17;5.60;;;19.80;72.90;;;;;;5028500;28;20032;-70
2021/10/22 08:37:47;;;;;;;18.65;5.32;;;19.80;72.90;;;;;;5022483;28;20038;-70
2021/10/22 08:40:15;;;;;;;20.27;5.68;;;19.90;73.30;;;;;;5025096;28;20034;-70
2021/10/22 08:42:43;;;;;;;20.73;6.25;;;19.80;73.50;;;;;;5021771;28;20057;-70
2021/10/22 08:45:11;;;;;;;18.63;5.50;;;19.90;73.70;;;;;;5027901;28;20021;-70
2021/10/22 08:47:38;;;;;;;25.05;5.35;;;19.90;73.40;;;;;;5022961;28;20445;-71
2021/10/22 08:50:14;;;;;;;25.20;7.00;;;20.00;72.60;;;;;;5025155;28;20082;-71
2021/10/22 08:52:42;;;;;;;13.38;4.05;;;20.00;71.60;;;;;;5028672;28;20503;-70
2021/10/22 08:55:10;;;;;;;15.75;4.25;;;20.00;71.30;;;;;;5023843;28;20032;-71
2021/10/22 08:57:42;;;;;;;17.30;5.30;;;20.10;70.90;;;;;;5021769;28;20034;-70
2021/10/22 09:00:10;;;;;;;12.10;3.70;;;20.10;70.60;;;;;;5023938;28;20088;-70
2021/10/22 09:02:36;;;;;;;15.50;4.82;;;20.20;70.70;;;;;;5024791;28;20492;-71
2021/10/22 09:05:15;;;;;;;16.05;4.45;;;20.20;70.30;;;;;;5027024;28;20101;-71
2021/10/22 09:07:47;;;;;;;15.82;3.67;;;20.20;68.90;;;;;;5021094;28;20483;-71
2021/10/22 09:10:15;;;;;;;21.02;4.93;;;20.20;69.40;;;;;;5023985;28;20021;-71
2021/10/22 09:12:57;;;;;;;26.42;5.18;;;20.20;69.70;;;;;;5024914;28;20458;-71
2021/10/22 09:15:26;;;;;;;24.13;4.07;;;20.20;69.50;;;;;;5026946;28;20080;-70
2021/10/22 09:17:56;;;;;;;13.85;4.28;;;20.30;69.60;;;;;;5021840;28;20484;-70
2021/10/22 09:20:24;;;;;;;13.43;3.50;;;20.30;69.10;;;;;;5021698;28;20362;-70
2021/10/22 09:22:57;;;;;;;13.70;4.03;;;20.30;68.90;;;;;;5026364;28;20018;-70
2021/10/22 09:25:26;;;;;;;16.63;3.40;;;20.30;68.60;;;;;;5024762;28;20487;-71
2021/10/22 09:27:57;;;;;;;13.65;4.10;;;20.30;68.50;;;;;;5023784;28;20022;-70
2021/10/22 09:30:23;;;;;;;17.42;4.70;;;20.30;68.20;;;;;;5023161;28;20022;-70
2021/10/22 09:32:55;;;;;;;10.60;2.92;;;20.40;68.20;;;;;;5020469;28;20635;-70
2021/10/22 09:35:41;;;;;;;13.15;3.60;;;20.30;67.10;;;;;;5018690;28;20048;-70
2021/10/22 09:38:20;;;;;;;11.65;3.67;;;20.40;66.70;;;;;;5021612;28;20109;-69
2021/10/22 09:41:04;;;;;;;13.90;3.58;;;20.40;66.50;;;;;;5024266;28;20052;-71
2021/10/22 09:43:38;;;;;;;28.30;5.72;;;20.40;66.50;;;;;;5019157;28;20373;-70
2021/10/22 09:46:21;;;;;;;23.77;4.40;;;20.50;66.90;;;;;;5021205;28;20071;-70
2021/10/22 09:48:57;;;;;;;28.58;5.97;;;20.50;66.80;;;;;;5025087;28;20111;-71
2021/10/22 09:51:29;;;;;;;29.88;6.15;;;20.50;67.90;;;;;;5027277;28;20022;-71
2021/10/22 09:54:07;;;;;;;31.23;4.93;;;20.50;68.70;;;;;;5023296;28;20021;-70
2021/10/22 09:56:34;;;;;;;23.70;4.90;;;20.40;69.10;;;;;;5023184;28;20018;-70
2021/10/22 09:59:03;;;;;;;23.42;4.57;;;20.30;69.90;;;;;;5022148;28;20022;-70
2021/10/22 10:01:32;;;;;;;19.75;4.50;;;20.20;71.00;;;;;;5023305;28;20060;-70
2021/10/22 10:04:00;;;;;;;23.95;4.50;;;20.20;71.20;;;;;;5020363;28;20029;-70
2021/10/22 10:06:29;;;;;;;28.20;5.30;;;20.20;71.70;;;;;;5023462;28;20516;-70
2021/10/22 10:08:55;;;;;;;24.15;5.55;;;20.10;72.20;;;;;;5022473;28;20014;-70
2021/10/22 10:11:27;;;;;;;18.60;4.30;;;20.00;72.80;;;;;;5024686;28;20025;-71
2021/10/22 10:13:55;;;;;;;14.50;3.83;;;20.00;72.90;;;;;;5025162;28;20028;-70
2021/10/22 10:16:26;;;;;;;17.35;4.28;;;20.00;71.90;;;;;;5020136;28;20049;-70
2021/10/22 10:19:09;;;;;;;18.15;4.78;;;20.10;71.80;;;;;;5023318;28;20018;-71
2021/10/22 10:21:44;;;;;;;16.45;4.55;;;20.10;72.30;;;;;;5024539;28;20115;-71
2021/10/22 10:24:12;;;;;;;17.70;4.13;;;20.10;72.60;;;;;;5023619;28;20021;-70
2021/10/22 10:26:39;;;;;;;20.40;6.20;;;20.10;73.60;;;;;;5022940;28;20032;-71
2021/10/22 10:29:29;;;;;;;61.92;12.20;;;20.20;73.50;;;;;;5024006;28;20036;-70
2021/10/22 10:32:07;;;;;;;24.25;4.95;;;20.30;72.00;;;;;;5025376;28;20771;-71
2021/10/22 10:34:39;;;;;;;30.00;7.38;;;20.40;72.00;;;;;;5023080;28;20072;-70
2021/10/22 10:37:25;;;;;;;57.75;8.20;;;20.50;72.20;;;;;;5022385;28;20013;-71
2021/10/22 10:39:55;;;;;;;61.72;7.07;;;20.70;70.90;;;;;;5024841;28;20013;-71
2021/10/22 10:42:28;;;;;;;40.28;7.80;;;20.90;68.90;;;;;;5018529;28;20046;-71
2021/10/22 10:44:57;;;;;;;23.95;4.85;;;21.00;66.80;;;;;;5023767;28;20470;-71
2021/10/22 10:47:30;;;;;;;23.88;3.95;;;21.10;65.70;;;;;;5025638;28;20485;-71
2021/10/22 10:49:58;;;;;;;46.45;7.13;;;21.20;63.00;;;;;;5025218;28;20063;-72
2021/10/22 10:52:41;;;;;;;33.00;4.55;;;21.20;61.90;;;;;;5026251;28;20033;-71
2021/10/22 10:55:29;;;;;;;21.58;4.00;;;21.10;63.00;;;;;;5025001;28;20531;-71
2021/10/22 10:57:57;;;;;;;30.75;4.55;;;21.10;63.40;;;;;;5029020;28;20036;-71
2021/10/22 11:00:41;;;;;;;36.67;4.82;;;21.00;64.10;;;;;;5026605;28;20095;-71
2021/10/22 11:03:10;;;;;;;44.70;8.20;;;21.00;66.00;;;;;;5028674;28;20017;-71
2021/10/22 11:05:46;;;;;;;34.45;5.88;;;21.00;66.30;;;;;;5026425;28;20026;-70
2021/10/22 11:08:22;;;;;;;39.95;6.28;;;21.00;67.40;;;;;;5023660;28;20029;-71
2021/10/22 11:10:58;;;;;;;31.10;5.13;;;20.90;66.70;;;;;;5026800;28;20032;-71
2021/10/22 11:13:25;;;;;;;18.85;4.28;;;20.90;66.20;;;;;;5028991;28;20017;-71
2021/10/22 11:15:52;;;;;;;40.70;7.40;;;20.90;65.80;;;;;;5026188;28;20109;-71
2021/10/22 11:18:21;;;;;;;21.92;4.70;;;21.00;64.90;;;;;;5021623;28;20029;-71
2021/10/22 11:20:51;;;;;;;21.15;4.07;;;21.00;66.20;;;;;;5029737;28;20033;-71
2021/10/22 11:23:17;;;;;;;16.52;3.17;;;21.00;67.50;;;;;;5025970;28;20017;-71
2021/10/22 11:25:44;;;;;;;14.75;3.75;;;21.00;67.90;;;;;;5024899;28;20033;-71
2021/10/22 11:28:12;;;;;;;17.08;3.80;;;21.00;68.40;;;;;;5025276;28;20049;-71
2021/10/22 11:30:54;;;;;;;14.90;3.78;;;21.00;69.00;;;;;;5026353;28;20022;-71
2021/10/22 11:33:24;;;;;;;24.90;4.88;;;21.00;69.20;;;;;;5025629;28;20086;-71
2021/10/22 11:35:51;;;;;;;15.27;4.28;;;21.00;69.50;;;;;;5027742;28;20025;-70
2021/10/22 11:38:27;;;;;;;16.13;3.97;;;21.10;69.50;;;;;;5026535;28;20033;-71
2021/10/22 11:40:56;;;;;;;23.10;5.90;;;21.20;68.90;;;;;;5027719;28;20033;-70
2021/10/22 11:43:23;;;;;;;24.48;5.43;;;21.20;68.50;;;;;;5024977;28;20107;-71
2021/10/22 11:45:53;;;;;;;29.80;4.80;;;21.20;68.60;;;;;;5027608;28;20376;-70
2021/10/22 11:48:34;;;;;;;20.23;3.90;;;21.20;68.50;;;;;;5025590;28;20101;-70
2021/10/22 11:51:01;;;;;;;45.17;8.57;;;21.10;68.90;;;;;;5024736;28;20052;-71
2021/10/22 11:53:27;;;;;;;16.80;4.32;;;21.00;69.00;;;;;;5027128;28;20436;-70
2021/10/22 11:56:02;;;;;;;27.02;4.75;;;20.90;69.70;;;;;;5023843;28;20032;-70
2021/10/22 11:58:34;;;;;;;19.08;4.93;;;20.80;70.80;;;;;;5025439;28;20105;-71
2021/10/22 12:01:02;;;;;;;15.90;4.55;;;20.80;72.00;;;;;;5023104;28;20541;-70
2021/10/22 12:03:55;;;;;;;21.88;5.28;;;20.70;72.00;;;;;;5026454;28;20462;-70
2021/10/22 12:06:23;;;;;;;18.77;5.53;;;20.70;71.80;;;;;;5026340;28;20069;-70
2021/10/22 12:09:02;;;;;;;18.63;4.47;;;20.60;72.10;;;;;;5023292;28;20112;-71
2021/10/22 12:11:29;;;;;;;23.17;5.47;;;20.50;72.60;;;;;;5026289;28;20116;-70
2021/10/22 12:13:55;;;;;;;21.92;4.57;;;20.50;72.70;;;;;;5023731;28;20507;-70
2021/10/22 12:16:29;;;;;;;25.38;5.65;;;20.50;71.90;;;;;;5023904;28;20022;-70
2021/10/22 12:18:59;;;;;;;15.35;4.80;;;20.40;72.40;;;;;;5025773;28;20021;-70
2021/10/22 12:21:30;;;;;;;23.38;5.03;;;20.40;72.70;;;;;;5027320;28;20033;-71
2021/10/22 12:24:15;;;;;;;16.05;4.20;;;20.50;72.90;;;;;;5025733;28;20029;-70
2021/10/22 12:26:41;;;;;;;17.70;5.25;;;20.50;72.50;;;;;;5024833;28;20444;-71
2021/10/22 12:29:12;;;;;;;18.92;5.43;;;20.50;71.90;;;;;;5026011;28;20017;-71
2021/10/22 12:31:40;;;;;;;28.58;4.45;;;20.50;71.60;;;;;;5023617;28;20060;-70
2021/10/22 12:34:10;;;;;;;19.95;4.93;;;20.50;71.80;;;;;;5021349;28;20046;-70
2021/10/22 12:36:39;;;;;;;13.63;3.67;;;20.50;73.40;;;;;;5022795;28;20057;-71
2021/10/22 12:39:45;;;;;;;20.95;3.90;;;20.40;73.30;;;;;;5023942;28;20474;-71
2021/10/22 12:42:26;;;;;;;27.90;5.57;;;20.30;73.90;;;;;;5006721;28;20080;-71
2021/10/22 12:45:20;;;;;;;20.88;4.35;;;20.30;74.30;;;;;;5019888;28;20029;-70
2021/10/22 12:47:48;;;;;;;28.75;6.32;;;20.10;74.30;;;;;;5025023;28;20030;-70
2021/10/22 12:50:18;;;;;;;38.35;6.85;;;20.10;73.90;;;;;;5025306;28;20021;-70
2021/10/22 12:53:05;;;;;;;22.52;4.95;;;20.00;73.60;;;;;;5024626;28;20014;-71
2021/10/22 12:55:32;;;;;;;28.65;6.82;;;20.00;74.00;;;;;;5025088;28;20014;-71
2021/10/22 12:58:16;;;;;;;33.67;5.28;;;20.00;73.70;;;;;;5026714;28;20071;-70
2021/10/22 13:00:44;;;;;;;26.15;5.22;;;19.90;73.20;;;;;;5026949;28;20496;-71
2021/10/22 13:03:11;;;;;;;17.08;4.50;;;19.90;72.90;;;;;;5025084;28;20096;-70
2021/10/22 13:05:40;;;;;;;17.20;4.55;;;19.80;73.20;;;;;;5021254;28;20029;-71
2021/10/22 13:21:16;;;;;;;8.65;3.03;;;19.70;71.40;;;;;;5026572;28;20107;-70
2021/10/22 13:23:44;;;;;;;20.92;3.97;;;19.70;70.50;;;;;;5022763;28;20049;-71
2021/10/22 13:26:10;;;;;;;18.13;4.18;;;19.80;70.00;;;;;;5024800;28;20014;-71
2021/10/22 13:28:37;;;;;;;29.50;5.38;;;19.80;70.10;;;;;;5021671;28;20037;-70
2021/10/22 13:31:07;;;;;;;20.40;4.32;;;19.80;70.30;;;;;;5024629;28;20013;-70
2021/10/22 13:33:33;;;;;;;12.98;4.57;;;19.90;70.50;;;;;;5023660;28;20061;-70
2021/10/22 13:36:05;;;;;;;19.52;5.28;;;19.90;70.60;;;;;;5023609;28;20212;-71
2021/10/22 13:38:32;;;;;;;28.60;5.15;;;19.80;70.50;;;;;;5025679;28;20026;-70
2021/10/22 13:41:00;;;;;;;23.00;3.47;;;19.80;70.20;;;;;;5022758;28;20492;-70
2021/10/22 13:43:27;;;;;;;15.88;4.10;;;19.80;70.30;;;;;;5022636;28;20025;-70
2021/10/22 13:45:54;;;;;;;13.75;3.20;;;19.80;70.10;;;;;;5023402;28;20026;-70
2021/10/22 13:48:21;;;;;;;13.20;3.55;;;19.70;69.60;;;;;;5024679;28;20105;-71
2021/10/22 13:50:48;;;;;;;22.50;4.55;;;19.70;69.50;;;;;;5023858;28;20061;-70
2021/10/22 13:53:23;;;;;;;28.27;5.55;;;19.60;70.00;;;;;;5023531;28;20037;-71
2021/10/22 13:55:51;;;;;;;22.73;4.00;;;19.60;70.90;;;;;;5024676;28;20029;-70
2021/10/22 13:58:19;;;;;;;16.67;4.57;;;19.50;72.00;;;;;;5024630;28;21318;-71
2021/10/22 14:00:47;;;;;;;12.77;3.35;;;19.50;72.70;;;;;;5023520;28;20628;-71
2021/10/22 14:03:14;;;;;;;17.10;3.80;;;19.30;72.20;;;;;;5021129;28;20388;-70
2021/10/22 14:05:41;;;;;;;22.60;4.43;;;19.30;72.00;;;;;;5024313;28;20021;-71
2021/10/22 14:08:07;;;;;;;15.63;5.38;;;19.30;74.90;;;;;;5023545;28;20029;-70
2021/10/22 14:10:37;;;;;;;17.67;4.15;;;19.10;75.50;;;;;;5019905;28;20039;-71
2021/10/22 14:13:59;;;;;;;25.73;4.25;;;19.10;74.40;;;;;;5010935;28;20025;-72
2021/10/22 14:24:41;;;;;;;;;;;18.70;74.70;;;;;;5018103;28;20064;-74
2021/10/22 14:30:13;;;;;;;8.70;2.50;;;18.60;75.50;;;;;;4951829;28;20059;-71
2021/10/22 14:32:40;;;;;;;29.35;5.57;;;18.50;77.20;;;;;;4946275;28;20035;-73
2021/10/22 14:35:07;;;;;;;8.88;3.42;;;18.40;78.50;;;;;;4983909;28;20823;-72
2021/10/22 14:37:34;;;;;;;13.45;3.22;;;18.20;79.80;;;;;;5018456;28;20037;-76
2021/10/22 14:40:40;;;;;;;4.88;1.67;;;18.20;79.10;;;;;;4997816;28;20409;-76
2021/10/22 14:43:48;;;;;;;12.13;2.35;;;18.10;79.80;;;;;;5017441;28;20029;-73